createdAt,value
2017-08-14T00:01:58.401Z,6.13
2017-08-14T00:04:26.764Z,8.90
2017-08-14T00:06:54.439Z,6.50
2017-08-14T00:09:22.063Z,7.90
2017-08-14T00:11:49.865Z,6.03
2017-08-14T00:14:17.524Z,5.43
2017-08-14T00:16:45.259Z,6.83
2017-08-14T00:19:13.039Z,9.30
2017-08-14T00:21:40.867Z,7.43
2017-08-14T00:24:08.476Z,7.43
2017-08-14T00:26:36.084Z,7.17
2017-08-14T00:29:03.753Z,10.60
2017-08-14T00:31:31.384Z,9.47
2017-08-14T00:33:59.021Z,8.37
2017-08-14T00:36:26.858Z,7.70
2017-08-14T00:38:54.479Z,6.90
2017-08-14T00:41:22.472Z,8.40
2017-08-14T00:43:50.164Z,7.67
2017-08-14T00:46:17.809Z,5.60
2017-08-14T00:48:45.440Z,9.60
2017-08-14T00:51:13.378Z,9.23
2017-08-14T00:53:41.005Z,8.23
2017-08-14T00:56:08.653Z,6.50
2017-08-14T00:58:36.933Z,6.63
2017-08-14T01:01:04.558Z,7.07
2017-08-14T01:03:32.182Z,8.23
2017-08-14T01:05:59.851Z,7.03
2017-08-14T01:08:27.473Z,8.30
2017-08-14T01:10:55.097Z,6.93
2017-08-14T01:13:22.955Z,8.80
2017-08-14T01:15:50.568Z,7.00
2017-08-14T01:18:18.186Z,10.83
2017-08-14T01:20:45.857Z,7.70
2017-08-14T01:23:13.491Z,8.33
2017-08-14T01:25:41.208Z,10.43
2017-08-14T01:28:08.880Z,10.37
2017-08-14T01:30:36.488Z,6.07
2017-08-14T01:33:04.108Z,7.97
2017-08-14T01:35:31.767Z,9.83
2017-08-14T01:37:59.380Z,7.00
2017-08-14T01:40:27.012Z,7.87
2017-08-14T01:42:54.908Z,6.50
2017-08-14T01:45:22.762Z,8.03
2017-08-14T01:47:50.378Z,7.73
2017-08-14T01:50:18.292Z,9.17
2017-08-14T01:52:45.906Z,7.00
2017-08-14T01:55:13.521Z,6.07
2017-08-14T01:57:41.283Z,9.50
2017-08-14T02:00:08.924Z,6.70
2017-08-14T02:02:36.544Z,8.80
2017-08-14T02:05:04.204Z,6.80
2017-08-14T02:07:31.816Z,6.90
2017-08-14T02:09:59.440Z,10.13
2017-08-14T02:12:27.880Z,6.40
2017-08-14T02:14:55.502Z,6.30
2017-08-14T02:17:23.314Z,6.37
2017-08-14T02:19:51.085Z,7.23
2017-08-14T02:22:18.733Z,9.50
2017-08-14T02:24:46.363Z,7.30
2017-08-14T02:27:14.071Z,6.27
2017-08-14T02:29:41.693Z,12.20
2017-08-14T02:32:09.368Z,5.67
2017-08-14T02:34:37.055Z,6.27
2017-08-14T02:37:04.847Z,6.93
2017-08-14T02:39:32.469Z,6.90
2017-08-14T02:42:00.152Z,5.20
2017-08-14T02:44:27.765Z,5.87
2017-08-14T02:46:55.382Z,5.70
2017-08-14T02:49:23.028Z,5.57
2017-08-14T02:51:50.644Z,7.70
2017-08-14T02:54:18.265Z,6.23
2017-08-14T02:56:45.924Z,5.83
2017-08-14T02:59:13.528Z,5.60
2017-08-14T03:01:41.900Z,7.33
2017-08-14T03:04:10.335Z,7.90
2017-08-14T03:06:37.948Z,7.03
2017-08-14T03:09:05.564Z,8.50
2017-08-14T03:11:33.226Z,7.67
2017-08-14T03:14:00.842Z,8.40
2017-08-14T03:16:28.461Z,9.67
2017-08-14T03:18:56.137Z,7.47
2017-08-14T03:21:23.767Z,8.83
2017-08-14T03:23:51.388Z,6.00
2017-08-14T03:26:19.045Z,6.83
2017-08-14T03:28:46.668Z,6.70
2017-08-14T03:31:14.438Z,5.70
2017-08-14T03:33:42.097Z,7.80
2017-08-14T03:36:10.373Z,5.13
2017-08-14T03:38:37.992Z,5.33
2017-08-14T03:41:05.898Z,8.40
2017-08-14T03:43:33.506Z,7.23
2017-08-14T03:46:01.125Z,5.80
2017-08-14T03:48:28.799Z,7.10
2017-08-14T03:50:56.420Z,7.83
2017-08-14T03:53:24.329Z,6.80
2017-08-14T03:55:52.004Z,6.10
2017-08-14T03:58:20.164Z,7.40
2017-08-14T04:00:47.915Z,7.27
2017-08-14T04:03:15.588Z,7.03
2017-08-14T04:05:43.197Z,7.87
2017-08-14T04:08:11.576Z,11.47
2017-08-14T04:10:40.017Z,13.20
2017-08-14T04:13:07.770Z,8.40
2017-08-14T04:15:35.538Z,11.83
2017-08-14T04:18:03.302Z,8.63
2017-08-14T04:20:31.072Z,10.17
2017-08-14T04:22:58.835Z,8.67
2017-08-14T04:25:26.525Z,6.70
2017-08-14T04:27:54.749Z,10.10
2017-08-14T04:30:22.377Z,7.63
2017-08-14T04:32:50.817Z,8.40
2017-08-14T04:35:18.445Z,12.23
2017-08-14T04:37:46.068Z,11.03
2017-08-14T04:40:13.735Z,7.40
2017-08-14T04:42:41.571Z,7.60
2017-08-14T04:45:09.199Z,9.33
2017-08-14T04:47:36.876Z,7.77
2017-08-14T04:50:04.498Z,9.03
2017-08-14T04:52:32.880Z,9.50
2017-08-14T04:55:01.480Z,10.30
2017-08-14T04:57:29.097Z,7.37
2017-08-14T04:59:56.715Z,8.87
2017-08-14T05:02:24.985Z,8.37
2017-08-14T05:04:52.690Z,12.27
2017-08-14T05:07:20.311Z,14.57
2017-08-14T05:09:47.974Z,10.83
2017-08-14T05:12:15.584Z,9.33
2017-08-14T05:14:43.197Z,11.07
2017-08-14T05:17:10.847Z,10.07
2017-08-14T05:19:39.232Z,8.37
2017-08-14T05:22:07.629Z,10.97
2017-08-14T05:24:35.301Z,12.80
2017-08-14T05:27:02.925Z,16.77
2017-08-14T05:29:30.709Z,13.63
2017-08-14T05:31:58.393Z,8.50
2017-08-14T05:34:26.008Z,6.17
2017-08-14T05:36:53.634Z,7.73
2017-08-14T05:39:21.310Z,6.97
2017-08-14T05:41:48.931Z,5.70
2017-08-14T05:44:16.557Z,5.57
2017-08-14T05:46:45.044Z,5.97
2017-08-14T05:49:13.561Z,7.97
2017-08-14T05:51:41.174Z,5.50
2017-08-14T05:54:08.836Z,6.27
2017-08-14T05:56:36.757Z,8.73
2017-08-14T05:59:04.983Z,11.83
2017-08-14T06:01:32.676Z,5.00
2017-08-14T06:04:00.313Z,5.43
2017-08-14T06:06:28.736Z,6.23
2017-08-14T06:08:56.381Z,4.80
2017-08-14T06:11:24.768Z,4.77
2017-08-14T06:13:53.175Z,4.77
2017-08-14T06:16:20.904Z,5.37
2017-08-14T06:18:48.528Z,4.37
2017-08-14T06:21:16.154Z,4.17
2017-08-14T06:23:43.861Z,3.30
2017-08-14T06:26:11.480Z,4.37
2017-08-14T06:28:39.105Z,4.20
2017-08-14T06:31:06.796Z,3.80
2017-08-14T06:33:34.667Z,3.70
2017-08-14T06:36:02.289Z,3.50
2017-08-14T06:38:30.275Z,4.10
2017-08-14T06:40:57.903Z,4.90
2017-08-14T06:43:25.520Z,3.60
2017-08-14T06:45:53.190Z,3.17
2017-08-14T06:48:20.813Z,3.50
2017-08-14T06:50:48.437Z,3.07
2017-08-14T06:53:16.093Z,4.43
2017-08-14T06:55:43.712Z,6.00
2017-08-14T06:58:11.342Z,2.73
2017-08-14T07:00:39.031Z,6.93
2017-08-14T07:03:06.664Z,2.60
2017-08-14T07:05:34.277Z,2.83
2017-08-14T07:08:01.984Z,7.70
2017-08-14T07:10:29.882Z,2.53
2017-08-14T07:12:57.503Z,9.30
2017-08-14T07:15:25.713Z,3.20
2017-08-14T07:17:53.326Z,2.70
2017-08-14T07:20:20.947Z,2.40
2017-08-14T07:22:48.608Z,3.90
2017-08-14T07:25:16.860Z,3.07
2017-08-14T07:27:44.485Z,2.40
2017-08-14T07:30:12.157Z,1.80
2017-08-14T07:32:40.072Z,4.03
2017-08-14T07:35:07.684Z,7.70
2017-08-14T07:37:35.393Z,2.43
2017-08-14T07:40:03.038Z,2.27
2017-08-14T07:42:30.649Z,1.83
2017-08-14T07:44:58.311Z,2.80
2017-08-14T07:47:26.693Z,2.20
2017-08-14T07:49:55.421Z,1.87
2017-08-14T07:52:23.103Z,2.20
2017-08-14T07:54:50.752Z,2.20
2017-08-14T07:57:18.733Z,2.20
2017-08-14T07:59:46.412Z,1.70
2017-08-14T08:02:14.049Z,1.70
2017-08-14T08:04:41.656Z,1.83
2017-08-14T08:07:10.124Z,2.03
2017-08-14T08:09:37.753Z,2.30
2017-08-14T08:12:05.392Z,1.70
2017-08-14T08:14:33.091Z,2.33
2017-08-14T08:17:00.708Z,2.00
2017-08-14T08:19:28.322Z,2.80
2017-08-14T08:21:56.009Z,1.50
2017-08-14T08:24:23.623Z,5.00
2017-08-14T08:26:51.240Z,1.53
2017-08-14T08:29:18.916Z,3.10
2017-08-14T08:31:46.570Z,1.70
2017-08-14T08:34:14.515Z,2.00
2017-08-14T08:36:42.196Z,1.30
2017-08-14T08:39:10.132Z,1.53
2017-08-14T08:41:37.748Z,1.47
2017-08-14T08:44:05.445Z,1.60
2017-08-14T08:46:33.064Z,1.67
2017-08-14T08:49:01.453Z,2.23
2017-08-14T08:51:30.155Z,1.57
2017-08-14T08:53:57.900Z,2.30
2017-08-14T08:56:26.284Z,1.47
2017-08-14T08:58:54.721Z,1.60
2017-08-14T09:01:22.355Z,2.13
2017-08-14T09:03:50.015Z,1.37
2017-08-14T09:06:17.704Z,1.43
2017-08-14T09:08:45.349Z,1.73
2017-08-14T09:11:13.005Z,1.50
2017-08-14T09:13:40.668Z,1.00
2017-08-14T09:16:08.298Z,1.17
2017-08-14T09:18:35.913Z,1.50
2017-08-14T09:21:03.582Z,1.40
2017-08-14T09:23:31.237Z,1.10
2017-08-14T09:25:58.896Z,1.40
2017-08-14T09:28:26.547Z,1.30
2017-08-14T09:30:54.163Z,1.40
2017-08-14T09:33:21.833Z,1.57
2017-08-14T09:35:50.226Z,1.50
2017-08-14T09:38:19.270Z,4.50
2017-08-14T09:40:46.949Z,1.50
2017-08-14T09:43:14.565Z,1.73
2017-08-14T09:45:42.191Z,7.43
2017-08-14T09:48:09.853Z,1.83
2017-08-14T09:50:37.486Z,1.60
2017-08-14T09:53:05.120Z,1.70
2017-08-14T09:55:33.118Z,2.43
2017-08-14T09:58:00.745Z,1.63
2017-08-14T10:00:28.355Z,2.13
2017-08-14T10:02:56.029Z,1.87
2017-08-14T10:05:23.664Z,1.60
2017-08-14T10:07:51.279Z,1.63
2017-08-14T10:10:18.938Z,1.50
2017-08-14T10:12:47.316Z,2.37
2017-08-14T10:15:15.695Z,1.60
2017-08-14T10:17:44.132Z,1.50
2017-08-14T10:20:11.756Z,1.63
2017-08-14T10:22:39.383Z,2.43
2017-08-14T10:25:07.048Z,1.63
2017-08-14T10:27:34.660Z,2.60
2017-08-14T10:30:02.280Z,2.40
2017-08-14T10:32:29.941Z,1.50
2017-08-14T10:34:57.558Z,1.67
2017-08-14T10:37:25.172Z,2.43
2017-08-14T10:39:53.044Z,1.90
2017-08-14T10:42:21.421Z,5.40
2017-08-14T10:44:49.804Z,5.40
2017-08-14T10:47:18.244Z,1.60
2017-08-14T10:49:46.005Z,1.80
2017-08-14T10:52:13.635Z,1.97
2017-08-14T10:54:41.330Z,1.60
2017-08-14T10:57:08.981Z,1.50
2017-08-14T10:59:36.602Z,1.87
2017-08-14T11:02:04.436Z,2.07
2017-08-14T11:04:32.248Z,1.53
2017-08-14T11:07:00.081Z,1.40
2017-08-14T11:09:27.836Z,2.17
2017-08-14T11:11:55.461Z,1.73
2017-08-14T11:14:23.074Z,1.37
2017-08-14T11:16:51.030Z,2.53
2017-08-14T11:19:18.655Z,1.47
2017-08-14T11:21:46.267Z,1.13
2017-08-14T11:24:14.333Z,1.67
2017-08-14T11:26:42.262Z,2.40
2017-08-14T11:29:09.896Z,1.20
2017-08-14T11:31:38.521Z,3.43
2017-08-14T11:34:06.308Z,1.23
2017-08-14T11:36:33.927Z,1.20
2017-08-14T11:39:01.592Z,2.60
2017-08-14T11:41:29.281Z,1.33
2017-08-14T11:43:56.900Z,2.40
2017-08-14T11:46:24.585Z,1.93
2017-08-14T11:48:52.205Z,1.20
2017-08-14T11:51:19.835Z,5.77
2017-08-14T11:53:47.519Z,1.57
2017-08-14T11:56:15.447Z,4.10
2017-08-14T11:58:43.351Z,1.50
2017-08-14T12:01:11.426Z,2.00
2017-08-14T12:03:39.042Z,1.90
2017-08-14T12:06:06.672Z,2.40
2017-08-14T12:08:34.351Z,1.90
2017-08-14T12:11:01.976Z,1.40
2017-08-14T12:13:29.639Z,1.57
2017-08-14T12:15:57.312Z,1.83
2017-08-14T12:18:25.172Z,1.73
2017-08-14T12:20:52.795Z,1.60
2017-08-14T12:23:20.773Z,1.40
2017-08-14T12:25:48.401Z,1.70
2017-08-14T12:28:16.024Z,1.20
2017-08-14T12:30:43.855Z,1.70
2017-08-14T12:33:11.468Z,1.53
2017-08-14T12:35:39.080Z,1.50
2017-08-14T12:38:06.742Z,1.50
2017-08-14T12:40:34.363Z,2.90
2017-08-14T12:43:01.993Z,1.40
2017-08-14T12:45:29.668Z,1.50
2017-08-14T12:47:57.520Z,2.00
2017-08-14T12:50:25.136Z,1.47
2017-08-14T12:52:52.819Z,2.07
2017-08-14T12:55:20.728Z,3.20
2017-08-14T12:57:48.345Z,2.60
2017-08-14T13:00:16.020Z,1.73
2017-08-14T13:02:43.633Z,1.93
2017-08-14T13:05:11.264Z,3.00
2017-08-14T13:07:38.931Z,2.23
2017-08-14T13:10:06.541Z,2.03
2017-08-14T13:12:34.160Z,1.93
2017-08-14T13:15:01.828Z,2.77
2017-08-14T13:17:29.458Z,2.40
2017-08-14T13:19:57.244Z,2.03
2017-08-14T13:22:25.297Z,2.13
2017-08-14T13:24:53.468Z,2.33
2017-08-14T13:27:21.080Z,1.80
2017-08-14T13:29:48.920Z,3.03
2017-08-14T13:32:16.540Z,5.07
2017-08-14T13:34:44.182Z,2.60
2017-08-14T13:37:12.196Z,6.10
2017-08-14T13:39:39.817Z,2.07
2017-08-14T13:42:07.466Z,2.37
2017-08-14T13:44:35.114Z,1.87
2017-08-14T13:47:02.732Z,2.33
2017-08-14T13:49:30.408Z,3.20
2017-08-14T13:51:58.021Z,2.20
2017-08-14T13:54:25.649Z,1.83
2017-08-14T13:56:53.330Z,3.63
2017-08-14T14:13:47.530Z,1.80
2017-08-14T14:16:15.174Z,1.90
2017-08-14T14:18:42.796Z,1.80
2017-08-14T14:21:10.469Z,1.67
2017-08-14T14:23:38.082Z,3.23
2017-08-14T14:26:05.700Z,1.80
2017-08-14T14:28:33.364Z,1.83
2017-08-14T14:31:00.982Z,1.53
2017-08-14T14:33:28.610Z,1.67
2017-08-14T14:35:56.282Z,2.40
2017-08-14T14:38:23.897Z,1.93
2017-08-14T14:40:51.515Z,2.17
2017-08-14T14:43:19.336Z,1.97
2017-08-14T14:45:46.962Z,4.87
2017-08-14T14:48:14.589Z,1.63
2017-08-14T14:50:42.289Z,2.00
2017-08-14T14:53:09.907Z,1.97
2017-08-14T14:55:37.529Z,1.97
2017-08-14T14:58:05.192Z,2.27
2017-08-14T15:00:33.104Z,2.33
2017-08-14T15:03:00.724Z,2.40
2017-08-14T15:05:28.713Z,2.40
2017-08-14T15:07:56.293Z,1.80
2017-08-14T15:10:23.932Z,1.87
2017-08-14T15:12:51.596Z,2.40
2017-08-14T15:15:19.208Z,2.80
2017-08-14T15:17:46.828Z,1.90
2017-08-14T15:20:14.718Z,1.67
2017-08-14T15:22:42.328Z,2.40
2017-08-14T15:25:09.938Z,2.00
2017-08-14T15:27:37.616Z,1.70
2017-08-14T15:30:05.228Z,5.57
2017-08-14T15:32:32.863Z,2.60
2017-08-14T15:35:00.524Z,4.57
2017-08-14T15:37:28.143Z,4.17
2017-08-14T15:39:55.780Z,2.20
2017-08-14T15:42:23.441Z,1.60
2017-08-14T15:44:51.052Z,2.07
2017-08-14T15:47:18.676Z,2.60
2017-08-14T15:49:46.645Z,2.03
2017-08-14T15:52:14.249Z,2.80
2017-08-14T15:54:41.860Z,1.50
2017-08-14T15:57:09.659Z,2.07
2017-08-14T15:59:37.273Z,2.70
2017-08-14T16:02:04.916Z,1.53
2017-08-14T16:04:32.585Z,2.30
2017-08-14T16:07:01.280Z,2.20
2017-08-14T16:09:29.664Z,4.67
2017-08-14T16:11:58.107Z,2.20
2017-08-14T16:14:25.769Z,3.63
2017-08-14T16:16:53.386Z,2.27
2017-08-14T16:19:32.862Z,3.20
2017-08-14T16:22:00.474Z,3.00
2017-08-14T16:24:28.852Z,2.13
2017-08-14T16:26:56.608Z,2.00
2017-08-14T16:29:24.999Z,2.50
2017-08-14T16:31:53.374Z,1.80
2017-08-14T16:34:21.827Z,2.70
2017-08-14T16:36:49.436Z,4.17
2017-08-14T16:39:17.056Z,2.10
2017-08-14T16:41:44.734Z,3.20
2017-08-14T16:44:12.358Z,2.10
2017-08-14T16:46:39.973Z,2.03
2017-08-14T16:49:08.404Z,3.47
2017-08-14T16:51:36.016Z,2.10
2017-08-14T16:54:03.633Z,1.77
2017-08-14T16:56:31.698Z,2.40
2017-08-14T16:58:59.338Z,2.20
2017-08-14T17:01:26.968Z,3.00
2017-08-14T17:03:55.370Z,2.00
2017-08-14T17:06:23.603Z,2.60
2017-08-14T17:08:51.358Z,2.50
2017-08-14T17:11:19.121Z,2.63
2017-08-14T17:13:46.779Z,2.20
2017-08-14T17:16:14.392Z,2.90
2017-08-14T17:18:42.966Z,2.37
2017-08-14T17:21:10.584Z,2.50
2017-08-14T17:23:39.151Z,3.33
2017-08-14T17:26:06.840Z,2.60
2017-08-14T17:28:34.460Z,2.47
2017-08-14T17:31:02.086Z,3.10
2017-08-14T17:33:29.741Z,2.40
2017-08-14T17:35:57.389Z,2.53
2017-08-14T17:38:25.124Z,3.27
2017-08-14T17:40:53.960Z,2.40
2017-08-14T17:43:24.097Z,2.40
2017-08-14T17:45:53.794Z,4.90
2017-08-14T17:48:23.075Z,8.03
2017-08-14T17:50:52.201Z,2.43
2017-08-14T17:53:22.451Z,2.10
2017-08-14T17:55:53.099Z,3.53
2017-08-14T17:58:21.486Z,1.90
2017-08-14T18:00:49.847Z,3.33
2017-08-14T18:03:18.954Z,1.60
2017-08-14T18:05:46.759Z,3.30
2017-08-14T18:08:15.443Z,2.77
2017-08-14T18:10:46.491Z,2.03
2017-08-14T18:13:17.497Z,3.67
2017-08-14T18:15:46.501Z,5.27
2017-08-14T18:18:14.402Z,3.07
2017-08-14T18:20:42.740Z,2.13
2017-08-14T18:23:10.545Z,2.50
2017-08-14T18:25:38.287Z,2.90
2017-08-14T18:28:06.442Z,6.33
2017-08-14T18:30:34.968Z,2.83
2017-08-14T18:33:03.173Z,3.27
2017-08-14T18:35:31.541Z,1.60
2017-08-14T18:38:00.097Z,4.00
2017-08-14T18:40:27.728Z,6.67
2017-08-14T18:42:55.382Z,2.80
2017-08-14T18:45:23.308Z,2.13
2017-08-14T18:47:51.553Z,3.20
2017-08-14T18:50:19.626Z,1.80
2017-08-14T18:52:47.605Z,7.10
2017-08-14T18:55:15.800Z,3.90
2017-08-14T18:57:43.443Z,1.90
2017-08-14T19:00:12.037Z,2.23
2017-08-14T19:02:39.902Z,1.77
2017-08-14T19:05:07.576Z,3.40
2017-08-14T19:07:36.305Z,2.07
2017-08-14T19:10:03.534Z,1.37
2017-08-14T19:12:31.917Z,3.23
2017-08-14T19:15:00.360Z,2.07
2017-08-14T19:17:28.015Z,2.53
2017-08-14T19:19:55.663Z,2.13
2017-08-14T19:22:24.206Z,1.93
2017-08-14T19:24:52.874Z,1.77
2017-08-14T19:27:21.955Z,1.70
2017-08-14T19:29:50.248Z,1.50
2017-08-14T19:32:18.614Z,1.97
2017-08-14T19:34:46.689Z,1.80
2017-08-14T19:37:14.569Z,1.60
2017-08-14T19:39:42.438Z,1.90
2017-08-14T19:42:10.349Z,1.77
2017-08-14T19:44:38.424Z,2.27
2017-08-14T19:47:06.057Z,2.80
2017-08-14T19:49:34.017Z,2.07
2017-08-14T19:52:01.851Z,1.80
2017-08-14T19:54:29.733Z,1.93
2017-08-14T19:56:57.437Z,2.93
2017-08-14T19:59:25.558Z,2.13
2017-08-14T20:01:53.172Z,3.10
2017-08-14T20:04:20.784Z,1.93
2017-08-14T20:06:48.651Z,2.30
2017-08-14T20:09:16.415Z,2.30
2017-08-14T20:11:44.098Z,2.97
2017-08-14T20:14:12.088Z,2.30
2017-08-14T20:16:39.844Z,2.17
2017-08-14T20:19:07.799Z,2.60
2017-08-14T20:21:35.711Z,1.90
2017-08-14T20:24:03.930Z,2.43
2017-08-14T20:26:32.016Z,4.73
2017-08-14T20:28:59.949Z,3.13
2017-08-14T20:31:27.917Z,6.33
2017-08-14T20:33:55.757Z,4.27
2017-08-14T20:36:23.826Z,2.60
2017-08-14T20:38:51.563Z,3.30
2017-08-14T20:41:19.425Z,2.50
2017-08-14T20:43:47.877Z,2.30
2017-08-14T20:46:15.784Z,4.50
2017-08-14T20:48:43.752Z,2.17
2017-08-14T20:51:11.524Z,2.33
2017-08-14T20:53:39.479Z,3.00
2017-08-14T20:56:07.705Z,3.73
2017-08-14T20:58:35.787Z,3.07
2017-08-14T21:01:03.430Z,2.40
2017-08-14T21:03:31.820Z,5.23
2017-08-14T21:05:59.513Z,3.30
2017-08-14T21:08:27.149Z,3.23
2017-08-14T21:10:55.068Z,2.70
2017-08-14T21:13:22.886Z,3.47
2017-08-14T21:15:50.501Z,3.57
2017-08-14T21:18:19.179Z,3.00
2017-08-14T21:20:48.637Z,2.53
2017-08-14T21:23:18.293Z,2.87
2017-08-14T21:25:45.944Z,2.77
2017-08-14T21:28:14.761Z,4.10
2017-08-14T21:30:44.159Z,4.57
2017-08-14T21:33:13.875Z,3.07
2017-08-14T21:35:42.419Z,5.53
2017-08-14T21:38:10.978Z,4.57
2017-08-14T21:40:41.936Z,2.80
2017-08-14T21:43:10.290Z,3.20
2017-08-14T21:45:39.293Z,2.73
2017-08-14T21:48:07.164Z,3.43
2017-08-14T21:50:34.844Z,4.93
2017-08-14T21:53:02.569Z,3.93
2017-08-14T21:55:30.501Z,5.33
2017-08-14T21:57:59.303Z,3.57
2017-08-14T22:00:27.077Z,3.30
2017-08-14T22:02:54.729Z,2.90
2017-08-14T22:05:23.583Z,3.23
2017-08-14T22:07:51.889Z,2.37
2017-08-14T22:10:20.754Z,4.33
2017-08-14T22:12:48.918Z,3.50
2017-08-14T22:15:16.609Z,2.77
2017-08-14T22:17:44.226Z,3.13
2017-08-14T22:20:11.849Z,4.57
2017-08-14T22:22:39.532Z,5.53
2017-08-14T22:25:07.289Z,4.10
2017-08-14T22:27:34.909Z,3.30
2017-08-14T22:30:02.596Z,4.67
2017-08-14T22:32:30.213Z,3.73
2017-08-14T22:34:58.026Z,4.93
2017-08-14T22:37:25.692Z,5.47
2017-08-14T22:39:53.320Z,5.47
2017-08-14T22:42:20.938Z,2.63
2017-08-14T22:44:48.607Z,5.57
2017-08-14T22:47:16.992Z,3.23
2017-08-14T22:49:45.650Z,3.97
2017-08-14T22:52:13.312Z,4.90
2017-08-14T22:54:40.938Z,2.97
2017-08-14T22:57:08.549Z,3.07
2017-08-14T22:59:36.245Z,4.03
2017-08-14T23:02:03.857Z,4.90
2017-08-14T23:04:31.469Z,4.20
2017-08-14T23:06:59.136Z,3.70
2017-08-14T23:09:26.764Z,4.27
2017-08-14T23:11:54.576Z,6.10
2017-08-14T23:14:22.445Z,4.63
2017-08-14T23:16:50.061Z,4.13
2017-08-14T23:19:17.682Z,4.70
2017-08-14T23:21:45.336Z,3.30
2017-08-14T23:24:12.967Z,4.80
2017-08-14T23:26:40.592Z,4.20
2017-08-14T23:29:08.281Z,5.23
2017-08-14T23:31:35.889Z,4.07
2017-08-14T23:34:03.511Z,7.40
2017-08-14T23:36:31.172Z,4.10
2017-08-14T23:38:58.800Z,4.50
2017-08-14T23:41:26.559Z,4.13
2017-08-14T23:43:54.228Z,4.37
2017-08-14T23:46:21.848Z,11.00
2017-08-14T23:48:49.461Z,5.90
2017-08-14T23:51:17.529Z,4.10
2017-08-14T23:53:45.147Z,5.40
2017-08-14T23:56:13.092Z,4.43
2017-08-14T23:58:40.941Z,4.40
